Latest Weather Observations for Roseworthy

IDS60801

Issued at 5:05 pm CST Sunday 21 September 2014 (issued every 30 minutes, with the page automatically refreshed every 10 minutes)

About weather observations | Map of weather stations | Latest weather observations for SA | Other Formats
Station Details ID: 023122 Name: ROSEWORTHY AWS Lat: -34.51 Lon: 138.68 Height: 65.0 m
Data from the previous 72 hours. | See also: Recent months at Roseworthy
Date/Time
CST
Temp
°C
App
Temp
°C
Dew
Point
Rel
Hum
%
Delta-T
°C
Wind Press
QNH
hPa
Press
MSL
hPa
Rain
since 9 am
mm
Dir
 
Spd
km/h
Gust
km/h
Spd
kts
Gust
kts
21/05:00pm 21.3 17.7 0.5 25 9.4 ESE 9 13 5 7 1026.1 - 0.0
21/04:30pm 22.0 17.2 -0.1 23 9.9 E 15 20 8 11 1025.9 - 0.0
21/04:00pm 22.6 17.3 -0.8 21 10.4 ENE 17 24 9 13 1025.7 - 0.0
21/03:30pm 22.9 17.7 0.1 22 10.4 E 17 24 9 13 1025.9 - 0.0
21/03:00pm 23.4 18.7 1.1 23 10.3 E 15 20 8 11 1026.3 1026.3 0.0
21/02:30pm 23.1 18.1 -1.1 20 10.8 ENE 15 20 8 11 1026.4 - 0.0
21/02:00pm 23.6 19.3 -1.3 19 11.1 NE 11 20 6 11 1026.8 - 0.0
21/01:30pm 23.7 20.0 0.1 21 10.8 NE 9 17 5 9 1027.2 - 0.0
21/01:00pm 22.8 18.5 -1.3 20 10.7 NNE 11 19 6 10 1027.7 - 0.0
21/12:30pm 23.2 19.1 2.1 25 10.0 E 13 24 7 13 1028.2 - 0.0
21/12:00pm 22.3 17.8 -0.4 22 10.1 E 13 20 7 11 1028.9 1029.0 0.0
21/11:30am 22.3 18.0 0.8 24 9.9 E 13 20 7 11 1029.2 - 0.0
21/11:00am 21.5 17.8 2.2 28 9.0 ENE 11 20 6 11 1029.2 - 0.0
21/10:30am 20.8 16.0 2.6 30 8.5 NE 17 22 9 12 1029.6 - 0.0
21/10:00am 19.7 14.7 4.6 37 7.3 NE 20 28 11 15 1029.8 - 0.0
21/09:30am 18.3 12.8 3.8 38 6.8 NE 22 30 12 16 1029.9 - 0.0
21/09:00am 16.9 11.6 5.2 46 5.6 NE 22 30 12 16 1029.8 1029.9 0.0
21/08:30am 14.9 9.0 3.7 47 5.1 NE 24 35 13 19 1029.5 - 0.0
21/08:00am 13.5 8.4 4.1 53 4.3 ENE 20 28 11 15 1029.2 - 0.0
21/07:30am 11.7 6.7 3.5 57 3.6 ENE 19 24 10 13 1029.1 - 0.0
21/07:00am 9.8 4.4 2.6 61 3.1 ENE 20 28 11 15 1029.1 - 0.0
21/06:30am 8.9 3.5 2.5 64 2.7 ENE 20 28 11 15 1028.6 - 0.0
21/06:00am 8.2 3.0 2.4 67 2.4 E 19 20 10 11 1028.4 1028.5 0.0
21/05:30am 7.6 3.5 2.5 70 2.1 ENE 13 20 7 11 1028.0 - 0.0
21/05:00am 7.7 3.3 2.8 71 2.1 E 15 19 8 10 1027.7 - 0.0
21/04:30am 8.0 3.2 2.7 69 2.2 ENE 17 22 9 12 1027.2 - 0.0
21/04:00am 7.2 2.8 2.7 73 1.9 E 15 20 8 11 1027.0 - 0.0
21/03:30am 7.1 3.0 2.4 72 1.9 E 13 15 7 8 1026.9 - 0.0
21/03:00am 8.1 3.3 2.6 68 2.3 E 17 20 9 11 1026.8 1026.8 0.0
21/02:30am 8.8 4.0 2.6 65 2.6 E 17 20 9 11 1027.0 - 0.0
21/02:00am 9.0 4.2 2.8 65 2.6 E 17 20 9 11 1027.2 - 0.0
21/01:30am 8.5 4.5 2.7 67 2.5 ENE 13 20 7 11 1027.2 - 0.0
21/01:00am 9.9 5.1 2.7 61 3.1 E 17 19 9 10 1027.1 - 0.0
21/12:30am 11.1 5.8 2.9 57 3.6 E 20 26 11 14 1027.2 - 0.0
21/12:00am 10.0 4.9 3.1 62 3.0 E 19 24 10 13 1027.2 1027.3 0.0
 
Date/Time
CST
Temp
°C
App
Temp
°C
Dew
Point
Rel
Hum
%
Delta-T
°C
Wind Press
QNH
hPa
Press
MSL
hPa
Rain
since 9 am
mm
Dir
 
Spd
km/h
Gust
km/h
Spd
kts
Gust
kts
20/11:30pm 9.7 5.0 3.4 65 2.7 E 17 20 9 11 1027.2 - 0.0
20/11:00pm 9.0 4.7 3.4 68 2.4 E 15 19 8 10 1027.4 - 0.0
20/10:30pm 8.6 4.4 3.6 71 2.2 E 15 17 8 9 1027.4 - 0.0
20/10:00pm 8.6 4.4 3.6 71 2.2 E 15 17 8 9 1027.3 - 0.0
20/09:30pm 7.6 3.3 3.3 74 1.8 E 15 17 8 9 1027.3 - 0.0
20/09:00pm 8.4 3.9 2.4 66 2.5 E 15 17 8 9 1027.1 1027.1 0.0
20/08:30pm 9.5 5.4 2.4 61 3.0 ESE 13 17 7 9 1027.0 - 0.0
20/08:00pm 8.9 4.6 3.1 67 2.5 E 15 19 8 10 1026.7 - 0.0
20/07:30pm 9.1 4.9 3.9 70 2.3 E 15 17 8 9 1026.4 - 0.0
20/07:00pm 10.4 6.7 4.5 67 2.6 E 13 15 7 8 1026.0 - 0.0
20/06:30pm 13.5 9.7 4.1 53 4.3 SE 13 17 7 9 1025.7 - 0.0
20/06:00pm 15.6 12.1 5.5 51 4.8 E 13 15 7 8 1025.2 1025.2 0.0
20/05:30pm 18.9 16.4 6.4 44 6.2 ESE 9 11 5 6 1024.8 - 0.0
20/05:00pm 20.8 16.8 2.6 30 8.5 SE 13 19 7 10 1024.4 - 0.0
20/04:30pm 21.8 17.7 2.0 27 9.3 SE 13 20 7 11 1024.1 - 0.0
20/04:00pm 22.3 18.4 1.3 25 9.7 SE 11 17 6 9 1023.9 - 0.0
20/03:30pm 22.4 18.2 1.4 25 9.7 SE 13 19 7 10 1023.6 - 0.0
20/03:00pm 23.2 19.6 3.2 27 9.6 ESE 11 17 6 9 1023.6 1023.7 0.0
20/02:30pm 22.9 20.0 2.4 26 9.7 NE 7 15 4 8 1023.7 - 0.0
20/02:00pm 23.2 20.2 2.1 25 10.0 NE 7 13 4 7 1023.7 - 0.0
20/01:30pm 22.6 19.1 1.0 24 10.0 E 9 20 5 11 1024.0 - 0.0
20/01:00pm 22.3 19.0 2.4 27 9.4 E 9 19 5 10 1024.3 - 0.0
20/12:30pm 22.2 17.3 2.3 27 9.4 NE 17 24 9 13 1024.6 - 0.0
20/12:00pm 21.9 17.8 2.1 27 9.2 NE 13 22 7 12 1025.1 1025.1 0.0
20/11:30am 21.6 17.5 2.3 28 9.1 NE 13 20 7 11 1025.4 - 0.0
20/11:00am 21.2 16.9 3.0 30 8.6 ENE 15 20 8 11 1025.8 - 0.0
20/10:30am 20.5 16.2 3.3 32 8.2 NNE 15 20 8 11 1026.1 - 0.0
20/10:00am 19.5 14.5 3.6 35 7.5 NNE 19 28 10 15 1026.1 - 0.0
20/09:30am 17.9 12.4 3.8 39 6.6 NE 22 30 12 16 1026.1 - 0.0
20/09:00am 16.3 11.0 3.0 41 6.0 NE 20 30 11 16 1025.8 1025.8 0.0
20/08:30am 14.6 8.5 2.8 45 5.3 NE 24 32 13 17 1025.6 - 0.0
20/08:00am 12.9 7.2 2.7 50 4.5 NE 22 33 12 18 1025.2 - 0.0
20/07:30am 10.5 5.1 2.6 58 3.4 NE 20 30 11 16 1024.9 - 0.0
20/07:00am 8.8 3.9 1.7 61 2.9 ENE 17 22 9 12 1024.6 - 0.0
20/06:30am 7.8 3.1 1.0 62 2.7 ENE 15 20 8 11 1024.3 - 0.0
20/06:00am 7.8 2.4 1.0 62 2.7 E 19 24 10 13 1024.0 1024.0 0.0
20/05:30am 7.5 3.2 0.9 63 2.6 ENE 13 19 7 10 1023.6 - 0.0
20/05:00am 8.4 2.9 0.9 59 3.0 ENE 19 24 10 13 1023.1 - 0.0
20/04:30am 8.7 3.0 0.7 57 3.2 ENE 20 28 11 15 1022.9 - 0.0
20/04:00am 8.6 3.2 1.1 59 3.1 ENE 19 24 10 13 1022.6 - 0.0
20/03:30am 9.0 3.4 1.2 58 3.2 ENE 20 26 11 14 1022.5 - 0.0
20/03:00am 9.2 3.2 1.1 57 3.3 E 22 30 12 16 1022.6 1022.7 0.0
20/02:30am 9.4 3.4 1.3 57 3.3 ENE 22 30 12 16 1022.5 - 0.0
20/02:00am 8.8 3.2 1.5 60 3.0 ENE 20 26 11 14 1022.6 - 0.0
20/01:30am 8.4 3.1 1.8 63 2.7 ENE 19 22 10 12 1022.8 - 0.0
20/01:00am 8.2 2.9 2.0 65 2.6 ENE 19 24 10 13 1022.9 - 0.0
20/12:30am 7.7 2.9 2.4 69 2.2 ENE 17 22 9 12 1023.0 - 0.0
20/12:00am 6.6 1.8 2.7 76 1.6 ENE 17 20 9 11 1023.0 1023.1 0.0
 
Date/Time
CST
Temp
°C
App
Temp
°C
Dew
Point
Rel
Hum
%
Delta-T
°C
Wind Press
QNH
hPa
Press
MSL
hPa
Rain
since 9 am
mm
Dir
 
Spd
km/h
Gust
km/h
Spd
kts
Gust
kts
19/11:30pm 4.9 1.1 1.7 80 1.3 ENE 11 13 6 7 1023.1 - 0.0
19/11:00pm 5.8 0.9 2.3 78 1.4 ENE 17 20 9 11 1023.1 - 0.0
19/10:30pm 4.8 1.0 2.0 82 1.1 E 11 15 6 8 1023.4 - 0.0
19/10:00pm 5.2 1.5 2.2 81 1.2 E 11 15 6 8 1023.5 - 0.0
19/09:30pm 4.6 0.5 2.3 85 0.9 ENE 13 17 7 9 1023.2 - 0.0
19/09:00pm 4.7 0.5 1.9 82 1.1 ENE 13 15 7 8 1023.4 1023.5 0.0
19/08:30pm 4.8 0.7 2.2 83 1.0 E 13 15 7 8 1023.3 - 0.0
19/08:00pm 5.0 1.3 2.4 83 1.1 E 11 13 6 7 1023.2 - 0.0
19/07:30pm 6.0 2.4 3.2 82 1.2 E 11 13 6 7 1023.1 - 0.0
19/07:00pm 7.2 3.8 4.0 80 1.4 E 11 13 6 7 1022.9 - 0.0
19/06:30pm 9.2 6.0 5.2 76 1.8 E 11 11 6 6 1022.5 - 0.0
19/06:00pm 12.6 9.6 6.2 65 3.0 E 11 13 6 7 1022.3 1022.4 0.0
19/05:30pm 15.9 12.8 5.5 50 5.0 E 11 13 6 7 1022.1 - 0.0
19/05:00pm 17.8 13.6 1.7 34 7.2 ENE 13 17 7 9 1022.0 - 0.0
19/04:30pm 18.5 13.9 1.5 32 7.7 NE 15 20 8 11 1021.9 - 0.0
19/04:00pm 18.9 15.0 1.4 31 7.9 NNE 11 20 6 11 1022.0 - 0.0
19/03:30pm 19.2 14.9 1.2 30 8.1 E 13 20 7 11 1022.1 - 0.0
19/03:00pm 19.4 14.2 2.3 32 7.9 NE 19 26 10 14 1022.3 1022.4 0.0
19/02:30pm 20.0 16.0 2.8 32 8.1 NNE 13 20 7 11 1022.6 - 0.0
19/02:00pm 19.1 15.0 2.0 32 7.8 NNE 13 24 7 13 1022.8 - 0.0
19/01:30pm 18.8 15.0 1.8 32 7.7 E 11 20 6 11 1023.1 - 0.0
19/01:00pm 18.7 14.2 2.1 33 7.6 N 15 24 8 13 1023.4 - 0.0
19/12:30pm 18.7 14.4 3.3 36 7.2 NE 15 22 8 12 1023.9 - 0.0
19/12:00pm 18.3 14.8 3.4 37 6.9 NNE 11 20 6 11 1024.2 1024.2 0.0
19/11:30am 18.6 13.6 3.6 37 7.1 NE 19 28 10 15 1024.6 - 0.0
19/11:00am 17.7 12.6 3.9 40 6.5 ENE 20 30 11 16 1024.9 - 0.0
19/10:30am 16.8 10.8 3.5 41 6.2 ENE 24 32 13 17 1025.2 - 0.0
19/10:00am 15.9 9.6 4.0 45 5.5 NE 26 35 14 19 1025.5 - 0.0
19/09:30am 14.9 8.7 4.3 49 4.9 ENE 26 35 14 19 1025.7 - 0.0
19/09:00am 13.4 7.4 5.3 58 3.8 ENE 26 35 14 19 1025.7 1025.7 0.0
19/08:30am 12.0 7.0 6.5 69 2.6 ENE 22 30 12 16 1025.6 - 0.0
19/08:00am 10.1 5.5 6.6 79 1.6 ENE 20 30 11 16 1025.3 - 0.0
19/07:30am 8.2 4.1 6.0 86 1.0 E 17 22 9 12 1025.2 - 0.0
19/07:00am 5.1 2.1 3.9 92 0.5 E 9 13 5 7 1025.0 - 0.0
19/06:30am 2.8 -0.6 1.9 94 0.4 E 9 11 5 6 1024.9 - 0.0
19/06:00am 0.9 -2.4 -0.2 92 0.4 E 7 9 4 5 1024.6 1024.6 0.0
19/05:30am 0.4 -3.0 -0.9 91 0.5 NE 7 9 4 5 1024.3 - 0.0
19/05:00am 1.1 -2.2 -0.1 92 0.4 E 7 9 4 5 1024.2 - 0.0
19/04:30am 1.2 -2.1 0.0 92 0.4 ENE 7 9 4 5 1024.0 - 0.0
19/04:00am 1.5 -2.1 0.3 92 0.4 NE 9 11 5 6 1024.0 - 0.0
19/03:30am 1.3 -2.4 0.1 92 0.4 NE 9 11 5 6 1024.1 - 0.0
19/03:00am 1.5 -2.1 0.3 92 0.4 ENE 9 11 5 6 1024.2 1024.2 0.0
19/02:30am 1.4 -2.7 0.1 91 0.5 ENE 11 11 6 6 1024.3 - 0.0
19/02:00am 1.7 -1.6 0.1 89 0.6 ENE 7 9 4 5 1024.6 - 0.0
19/01:30am 2.6 -0.9 1.1 90 0.6 E 9 11 5 6 1024.6 - 0.0
19/01:00am 3.5 0.5 2.0 90 0.6 ENE 7 7 4 4 1024.9 - 0.0
19/12:30am 4.5 1.7 3.0 90 0.6 ESE 7 11 4 6 1025.0 - 0.0
19/12:00am 4.8 2.0 3.3 90 0.6 E 7 9 4 5 1025.2 1025.2 0.0
 
Date/Time
CST
Temp
°C
App
Temp
°C
Dew
Point
Rel
Hum
%
Delta-T
°C
Wind Press
QNH
hPa
Press
MSL
hPa
Rain
since 9 am
mm
Dir
 
Spd
km/h
Gust
km/h
Spd
kts
Gust
kts
18/11:30pm 5.4 2.9 3.9 90 0.6 NE 6 7 3 4 1025.5 - 0.0
18/11:00pm 5.5 2.8 3.7 88 0.8 NNE 7 9 4 5 1025.5 - 0.0
18/10:30pm 6.4 3.5 4.4 87 0.9 ESE 9 9 5 5 1025.5 - 0.0
18/10:00pm 7.4 4.3 5.4 87 0.9 ESE 11 13 6 7 1025.5 - 0.0
18/09:30pm 7.6 4.5 5.6 87 0.9 ESE 11 13 6 7 1025.7 - 0.0
18/09:00pm 7.4 4.7 5.4 87 0.9 ESE 9 11 5 6 1025.6 1025.6 0.0
18/08:30pm 8.3 5.3 6.1 86 1.0 SE 11 13 6 7 1025.7 - 0.0
18/08:00pm 8.2 7.3 6.2 87 0.9 CALM 0 0 0 0 1025.6 - 0.0
18/07:30pm 9.5 7.6 6.9 84 1.2 S 6 9 3 5 1025.4 - 0.0
18/07:00pm 10.3 8.4 7.4 82 1.4 SE 7 11 4 6 1025.0 - 0.0
18/06:30pm 10.6 7.8 7.1 79 1.7 SSE 11 13 6 7 1024.9 - 0.0
18/06:00pm 11.5 8.9 7.6 77 1.9 S 11 13 6 7 1024.7 1024.7 0.0
18/05:30pm 12.5 9.7 7.0 69 2.7 S 11 15 6 8 1024.6 - 0.0

Other Formats:

Comma delimited format used in spreadsheet applications
http://www.bom.gov.au/fwo/IDS60801/IDS60801.95671.axf

JavaScript Object Notation format (JSON) in row-major order
http://www.bom.gov.au/fwo/IDS60801/IDS60801.95671.json